Time;durP1;ratioP1;P1;durP2;ratioP2;P2;SDS_P1;SDS_P2;PMS_P1;PMS_P2;Temp;Humidity;BMP_temperature;BMP_pressure;BME280_temperature;BME280_humidity;BME280_pressure;Samples;Min_cycle;Max_cycle;Signal;HPM_P1;HPM_P2
2021/01/21 00:01:55;;;;;;;;;2.00;1.00;19.30;59.90;;;18.28;45.19;101620.75;5019061;28;8819;-59
2021/01/21 00:04:22;;;;;;;;;2.50;2.00;19.60;60.10;;;18.29;45.41;101633.13;5020542;28;8776;-60
2021/01/21 00:06:49;;;;;;;;;0.00;0.00;19.40;60.10;;;18.30;45.44;101626.81;5015025;28;8927;-60
2021/01/21 00:09:16;;;;;;;;;1.50;1.50;19.50;60.10;;;18.32;45.44;101629.34;5024973;28;8801;-61
2021/01/21 00:11:43;;;;;;;;;2.00;2.00;19.50;60.10;;;18.31;45.32;101633.03;5024562;28;8794;-60
2021/01/21 00:14:10;;;;;;;;;3.00;1.75;19.50;60.10;;;18.33;45.26;101639.94;5011534;28;8753;-60
2021/01/21 00:16:37;;;;;;;;;3.00;2.00;19.50;60.10;;;18.34;44.84;101638.97;5024980;28;8797;-60
2021/01/21 00:19:04;;;;;;;;;2.00;2.00;19.50;59.60;;;18.35;45.06;101643.34;5021521;28;8837;-60
2021/01/21 00:21:30;;;;;;;;;2.00;2.00;19.40;59.70;;;18.38;45.09;101634.19;5019818;28;8835;-58
2021/01/21 00:23:58;;;;;;;;;2.25;2.00;19.70;59.90;;;18.40;44.24;101635.75;5024785;28;10148;-59
2021/01/21 00:26:26;;;;;;;;;3.00;2.50;19.40;59.40;;;18.42;44.06;101649.88;5024349;28;8833;-58
2021/01/21 00:28:54;;;;;;;;;3.00;1.50;19.30;58.70;;;18.47;43.78;101645.94;5022050;28;8821;-59
2021/01/21 00:31:21;;;;;;;;;2.00;2.00;19.50;58.10;;;18.49;43.71;101643.97;5027841;28;8771;-59
2021/01/21 00:33:48;;;;;;;;;4.75;2.25;19.50;58.80;;;18.50;43.38;101640.34;5020626;28;8840;-58
2021/01/21 00:36:15;;;;;;;;;3.00;3.00;19.40;58.70;;;18.53;43.30;101642.75;5019877;28;8806;-61
2021/01/21 00:38:42;;;;;;;;;2.00;2.00;19.60;58.60;;;18.54;43.50;101641.75;5024466;28;8819;-60
2021/01/21 00:41:09;;;;;;;;;4.50;2.00;19.60;58.60;;;18.57;43.35;101638.81;5015597;28;8792;-61
2021/01/21 00:43:36;;;;;;;;;0.00;0.00;19.60;58.70;;;18.57;43.59;101645.03;5025621;28;8990;-60
2021/01/21 00:46:03;;;;;;;;;2.75;2.75;19.40;58.70;;;18.60;43.62;101651.94;5020939;28;8797;-61
2021/01/21 00:48:30;;;;;;;;;2.50;2.50;19.50;59.00;;;18.61;44.16;101653.63;5029846;28;8806;-60
2021/01/21 00:50:57;;;;;;;;;4.00;3.00;19.60;59.00;;;18.63;44.23;101651.66;5023819;28;8809;-60
2021/01/21 00:53:24;;;;;;;;;3.00;3.00;19.60;59.10;;;18.64;43.97;101648.00;5020069;28;8799;-60
2021/01/21 00:55:50;;;;;;;;;2.75;2.75;19.80;59.40;;;18.66;44.22;101656.75;5026479;28;9528;-61
2021/01/21 00:58:17;;;;;;;;;2.50;2.50;19.70;59.40;;;18.68;44.39;101653.94;5027160;28;8889;-59
2021/01/21 01:00:44;;;;;;;;;3.00;2.00;19.50;59.30;;;18.67;44.16;101650.41;5025940;28;8926;-60
2021/01/21 01:03:11;;;;;;;;;2.00;2.00;19.50;59.40;;;18.69;43.42;101648.44;5027267;28;8829;-57
2021/01/21 01:05:38;;;;;;;;;2.00;2.00;19.60;58.90;;;18.71;42.76;101649.16;5028520;28;8818;-60
2021/01/21 01:08:05;;;;;;;;;3.75;3.00;19.50;58.20;;;18.73;42.69;101660.59;5023302;28;8798;-61
2021/01/21 01:10:32;;;;;;;;;3.00;2.00;19.70;57.70;;;18.73;42.03;101655.25;5021335;28;8796;-60
2021/01/21 01:12:59;;;;;;;;;2.25;2.25;19.50;56.60;;;18.74;40.73;101658.75;5025848;28;8799;-59
2021/01/21 01:15:30;;;;;;;;;6.75;5.00;19.50;56.00;;;18.74;39.94;101658.75;5023761;28;9488;-61
2021/01/21 01:17:57;;;;;;;;;4.50;4.50;19.40;55.20;;;18.75;40.03;101655.09;5028206;28;8802;-61
2021/01/21 01:20:24;;;;;;;;;4.25;4.25;19.40;55.00;;;18.74;40.03;101658.75;5018349;28;8919;-61
2021/01/21 01:22:55;;;;;;;;;5.25;5.00;19.30;54.60;;;18.74;39.31;101654.25;5026535;28;8792;-60
2021/01/21 01:25:23;;;;;;;;;4.00;3.00;19.30;54.00;;;18.62;35.54;101656.19;5025024;28;8782;-63
2021/01/21 01:27:50;;;;;;;;;3.25;3.25;19.20;51.30;;;18.58;35.73;101654.72;5029143;28;9569;-62
2021/01/21 01:30:18;;;;;;;;;2.00;2.00;19.10;51.50;;;18.55;35.89;101659.50;4999772;28;8829;-63
2021/01/21 01:32:49;;;;;;;;;2.00;2.00;19.00;51.30;;;18.56;36.26;101662.03;5028560;28;8905;-63
2021/01/21 01:35:17;;;;;;;;;3.00;2.00;19.00;51.50;;;18.57;37.43;101657.53;5029472;28;8794;-62
2021/01/21 01:37:44;;;;;;;;;2.00;2.00;19.10;52.40;;;18.61;37.56;101670.53;5034695;28;8812;-62
2021/01/21 01:40:14;;;;;;;;;1.00;0.50;19.10;52.80;;;18.62;37.78;101666.00;5041025;28;8808;-62
2021/01/21 01:42:42;;;;;;;;;1.00;1.00;19.10;53.20;;;18.65;36.07;101671.13;5022507;28;8845;-61
2021/01/21 01:45:14;;;;;;;;;0.00;0.00;19.20;52.90;;;18.64;37.50;101672.09;5040472;28;8780;-62
2021/01/21 01:47:45;;;;;;;;;0.50;0.50;19.10;53.10;;;18.66;37.00;101667.44;5026418;28;8898;-62
2021/01/21 01:50:14;;;;;;;;;2.00;1.00;19.10;53.00;;;18.66;36.93;101670.13;5021080;28;8842;-61
2021/01/21 01:52:42;;;;;;;;;2.50;1.00;19.30;53.40;;;18.68;36.82;101668.19;5019653;28;8888;-60
2021/01/21 01:55:15;;;;;;;;;0.00;0.00;19.20;53.40;;;18.70;36.04;101679.59;5027865;28;9509;-61
2021/01/21 01:57:44;;;;;;;;;0.50;0.50;19.40;53.40;;;18.70;37.13;101678.72;5020186;28;8837;-60
2021/01/21 02:00:12;;;;;;;;;1.50;0.00;19.30;52.30;;;18.68;36.81;101680.72;5014371;28;8827;-61
2021/01/21 02:02:42;;;;;;;;;2.00;1.00;19.30;52.50;;;18.70;37.59;101679.59;5025277;28;8812;-60
2021/01/21 02:05:10;;;;;;;;;1.00;1.00;19.30;53.70;;;18.74;37.84;101685.53;5006175;28;8800;-60
2021/01/21 02:07:36;;;;;;;;;0.25;0.25;19.40;53.80;;;18.79;37.87;101681.50;5026195;28;8906;-60
2021/01/21 02:10:04;;;;;;;;;0.25;0.00;19.50;53.70;;;18.87;38.33;101683.50;5025935;28;8799;-61
2021/01/21 02:13:03;;;;;;;;;0.00;0.00;19.80;53.90;;;18.94;38.78;101692.72;5010313;28;8846;-61
2021/01/21 02:16:33;;;;;;;;;1.25;1.25;20.10;53.90;;;19.09;38.87;101691.38;5028032;28;8792;-60
2021/01/21 02:19:34;;;;;;;;;15.50;15.50;20.30;54.10;;;19.16;39.27;101691.69;5021570;28;8863;-60
2021/01/21 02:22:38;;;;;;;;;11.00;11.00;20.40;54.00;;;19.26;39.59;101689.91;5018487;28;8877;-60
2021/01/21 02:25:46;;;;;;;;;3.50;3.00;20.60;54.10;;;19.35;39.61;101690.91;5028096;28;8992;-61
2021/01/21 02:28:39;;;;;;;;;1.00;0.75;20.80;54.20;;;19.46;39.80;101698.84;5042138;28;8799;-61
2021/01/21 02:31:29;;;;;;;;;0.75;0.75;21.00;54.30;;;19.51;39.84;101690.38;5005970;28;8808;-60
2021/01/21 02:34:15;;;;;;;;;0.00;0.00;21.00;54.20;;;19.61;39.69;101698.44;5026092;28;8806;-62
2021/01/21 02:36:51;;;;;;;;;0.00;0.00;21.20;54.30;;;19.68;39.77;101700.47;5024909;28;8911;-60
2021/01/21 02:39:19;;;;;;;;;0.00;0.00;21.20;54.30;;;19.68;39.74;101703.13;5031879;28;8849;-62
2021/01/21 02:41:47;;;;;;;;;0.80;0.00;21.10;54.40;;;19.68;39.79;101697.78;5003292;28;8908;-61
2021/01/21 02:44:14;;;;;;;;;0.00;0.00;21.00;54.90;;;19.66;40.07;101694.34;5024386;28;8798;-62
2021/01/21 02:46:48;;;;;;;;;2.75;1.00;20.80;55.20;;;19.66;40.38;101697.03;5023329;28;8798;-60
2021/01/21 02:49:16;;;;;;;;;1.00;1.00;20.60;55.40;;;19.73;40.24;101705.41;5028380;28;8789;-63
2021/01/21 02:52:01;;;;;;;;;1.00;1.00;21.00;55.50;;;19.81;40.44;101699.34;5014033;28;8834;-63
2021/01/21 02:54:45;;;;;;;;;3.25;3.00;21.00;55.50;;;19.83;40.61;101698.22;5017804;28;8827;-61
2021/01/21 02:57:30;;;;;;;;;2.00;2.00;21.00;55.50;;;19.84;40.65;101699.06;5015996;28;8806;-62
2021/01/21 03:00:01;;;;;;;;;3.00;2.00;21.00;56.20;;;19.83;40.79;101710.78;5025387;28;8814;-63
2021/01/21 03:02:34;;;;;;;;;2.75;2.00;20.80;55.70;;;19.85;40.64;101703.47;5014109;28;8840;-61
2021/01/21 03:05:03;;;;;;;;;2.00;2.00;21.00;56.10;;;19.83;40.71;101700.06;5025097;28;8869;-63
2021/01/21 03:07:31;;;;;;;;;1.25;1.25;21.10;56.30;;;19.85;40.22;101700.78;5002100;28;8782;-61
2021/01/21 03:09:57;;;;;;;;;3.00;3.00;20.90;56.30;;;19.83;40.67;101717.00;5025697;28;9029;-62
2021/01/21 03:12:28;;;;;;;;;2.75;2.75;20.80;56.10;;;19.83;41.17;101705.44;5019533;28;8828;-61
2021/01/21 03:14:57;;;;;;;;;1.00;1.00;20.80;56.90;;;19.89;41.80;101707.53;5020109;28;8801;-61
2021/01/21 03:17:26;;;;;;;;;2.00;2.00;20.90;57.40;;;19.91;41.93;101702.88;5020502;28;8919;-60
2021/01/21 03:19:53;;;;;;;;;3.00;2.50;20.90;57.10;;;19.93;41.69;101700.91;5024428;28;8839;-62
2021/01/21 03:22:20;;;;;;;;;2.75;2.75;21.10;57.20;;;19.91;41.58;101701.06;5023901;28;8839;-67
2021/01/21 03:24:48;;;;;;;;;2.50;2.00;20.90;57.20;;;19.91;41.80;101703.72;5023227;28;8827;-64
2021/01/21 03:27:15;;;;;;;;;2.50;2.00;21.00;57.40;;;19.91;41.56;101703.72;5023863;28;8792;-61
2021/01/21 03:29:41;;;;;;;;;2.00;2.00;21.00;57.50;;;19.93;41.52;101706.28;5024932;28;8806;-61
2021/01/21 03:32:08;;;;;;;;;2.50;2.00;20.90;57.30;;;19.91;41.71;101694.84;5022258;28;8924;-60
2021/01/21 03:34:35;;;;;;;;;2.00;2.00;20.80;57.60;;;19.90;41.86;101693.16;5023208;28;8780;-60
2021/01/21 03:37:02;;;;;;;;;3.25;2.00;20.90;58.00;;;19.92;41.71;101693.84;5018275;28;8806;-60
2021/01/21 03:39:29;;;;;;;;;1.50;1.50;20.70;58.00;;;19.91;41.49;101701.06;5017606;28;8848;-60
2021/01/21 03:41:56;;;;;;;;;3.00;3.00;20.70;57.80;;;19.89;41.94;101704.84;5008955;28;8814;-59
2021/01/21 03:44:22;;;;;;;;;3.25;3.00;20.80;57.90;;;19.88;41.62;101706.69;5017704;28;8774;-61
2021/01/21 03:46:49;;;;;;;;;1.75;0.25;20.70;58.00;;;19.86;41.71;101699.78;5020281;28;8825;-60
2021/01/21 03:49:16;;;;;;;;;2.00;2.00;20.60;57.70;;;19.84;41.99;101707.94;5017098;28;8930;-59
2021/01/21 03:51:43;;;;;;;;;2.00;2.00;20.80;58.40;;;19.82;42.12;101706.41;5018644;28;8767;-60
2021/01/21 03:54:09;;;;;;;;;2.00;2.00;20.80;58.40;;;19.78;42.27;101707.69;5019745;28;9521;-59
2021/01/21 03:56:36;;;;;;;;;4.50;3.00;20.50;57.90;;;19.79;42.43;101714.72;5021054;28;8811;-59
2021/01/21 03:59:04;;;;;;;;;1.25;1.00;20.60;57.90;;;19.76;42.47;101706.97;5018102;28;8793;-60
2021/01/21 04:01:31;;;;;;;;;2.50;2.50;20.40;57.60;;;19.73;42.64;101710.78;5014434;28;8831;-60
2021/01/21 04:03:58;;;;;;;;;3.25;2.00;20.60;57.70;;;19.70;42.97;101706.53;5023404;28;8833;-59
2021/01/21 04:06:25;;;;;;;;;3.75;3.00;20.70;58.30;;;19.70;43.05;101714.56;5025574;28;8785;-59
2021/01/21 04:08:52;;;;;;;;;5.00;3.50;20.50;58.70;;;19.68;43.17;101713.84;5029662;28;8772;-60
2021/01/21 04:11:19;;;;;;;;;0.50;0.50;20.60;58.80;;;19.66;43.38;101712.28;5026287;28;9507;-59
2021/01/21 04:13:45;;;;;;;;;3.00;2.00;20.50;58.50;;;19.64;43.54;101727.63;5030556;28;8821;-59
2021/01/21 04:16:12;;;;;;;;;4.25;2.50;20.50;59.10;;;19.61;43.78;101715.34;5019383;28;8833;-59
2021/01/21 04:18:39;;;;;;;;;2.75;2.00;20.50;58.40;;;19.60;43.96;101728.91;5019439;28;8838;-59
2021/01/21 04:21:06;;;;;;;;;5.00;4.00;20.60;58.90;;;19.57;44.04;101719.31;5024270;28;8817;-59
2021/01/21 04:23:36;;;;;;;;;3.50;3.00;20.40;58.70;;;19.55;44.07;101723.97;5025192;28;8804;-60
2021/01/21 04:26:04;;;;;;;;;3.75;2.00;20.50;58.20;;;19.54;44.28;101722.28;5030109;28;8909;-59
2021/01/21 04:28:31;;;;;;;;;4.25;3.00;20.30;58.00;;;19.50;44.14;101726.19;5032174;28;8786;-59
2021/01/21 04:30:59;;;;;;;;;4.75;4.00;20.40;58.20;;;19.50;44.25;101721.69;5027691;28;8834;-59
2021/01/21 04:33:25;;;;;;;;;3.00;3.00;20.30;58.30;;;19.47;44.30;101718.44;5021394;28;8841;-59
2021/01/21 04:35:52;;;;;;;;;5.50;5.00;20.40;58.40;;;19.46;44.34;101720.28;5016029;28;8828;-59
2021/01/21 04:38:19;;;;;;;;;2.33;2.33;20.10;58.30;;;19.42;44.33;101728.72;5034484;28;8787;-59
2021/01/21 04:40:46;;;;;;;;;3.50;3.00;20.00;60.00;;;19.41;44.31;101729.69;5023195;28;8813;-59
2021/01/21 04:43:13;;;;;;;;;1.75;1.75;20.20;60.80;;;19.44;44.69;101742.84;5031818;28;8839;-59
2021/01/21 04:45:40;;;;;;;;;2.00;2.00;20.30;60.10;;;19.43;44.42;101736.59;5033944;28;8774;-59
2021/01/21 04:48:07;;;;;;;;;3.75;3.00;20.50;59.80;;;19.41;44.12;101738.59;5033611;28;8780;-59
2021/01/21 04:50:35;;;;;;;;;2.50;2.00;20.40;59.50;;;19.40;43.78;101752.97;5020324;28;8813;-59
2021/01/21 04:53:06;;;;;;;;;1.75;0.75;20.30;59.30;;;19.38;44.02;101732.66;5031560;28;8815;-61
2021/01/21 04:55:41;;;;;;;;;2.75;2.00;20.20;58.60;;;19.35;44.33;101739.13;5015667;28;8891;-62
2021/01/21 04:58:28;;;;;;;;;1.00;0.50;20.10;58.50;;;19.36;44.35;101742.63;5029126;28;8863;-61
2021/01/21 05:00:56;;;;;;;;;1.00;1.00;20.10;58.80;;;19.30;44.52;101736.84;5001172;28;8800;-60
2021/01/21 05:03:23;;;;;;;;;1.25;0.50;20.20;59.90;;;19.28;45.31;101730.78;5027539;28;8820;-62
2021/01/21 05:05:50;;;;;;;;;1.00;1.00;20.20;60.40;;;19.33;44.42;101746.44;5008727;28;8796;-60
2021/01/21 05:08:19;;;;;;;;;2.00;1.25;20.10;59.70;;;19.33;44.32;101734.88;5005783;28;8804;-59
2021/01/21 05:10:46;;;;;;;;;1.00;0.25;20.30;59.40;;;19.32;44.09;101738.56;5028780;28;8810;-60
2021/01/21 05:13:13;;;;;;;;;1.25;1.25;20.40;59.30;;;19.29;43.99;101743.19;5010034;28;8798;-60
2021/01/21 05:15:39;;;;;;;;;0.75;0.75;20.40;59.30;;;19.27;44.26;101745.16;5029017;28;8808;-62
2021/01/21 05:18:06;;;;;;;;;1.25;1.25;20.30;59.30;;;19.27;44.03;101737.13;5017423;28;8800;-61
2021/01/21 05:20:36;;;;;;;;;0.00;0.00;20.40;59.60;;;19.25;44.28;101747.13;5016370;28;8776;-61
2021/01/21 05:23:07;;;;;;;;;1.25;1.00;20.10;59.20;;;19.24;44.31;101736.56;5031956;28;8872;-61
2021/01/21 05:25:34;;;;;;;;;2.00;2.00;20.30;59.50;;;19.22;44.53;101731.31;5028863;28;8784;-61
2021/01/21 05:28:06;;;;;;;;;2.00;2.00;20.30;59.30;;;19.21;44.44;101735.00;5023860;28;8789;-61
2021/01/21 05:30:34;;;;;;;;;1.25;1.25;20.30;58.90;;;19.19;44.64;101734.28;5029414;28;8794;-61
2021/01/21 05:33:02;;;;;;;;;2.00;1.50;20.10;59.90;;;19.19;44.71;101736.09;5025526;28;8822;-61
2021/01/21 05:35:30;;;;;;;;;1.75;1.75;20.30;60.50;;;19.21;44.54;101736.78;5035602;28;8873;-62
2021/01/21 05:38:00;;;;;;;;;1.00;1.00;20.20;59.90;;;19.21;44.34;101734.13;5014955;28;8804;-62
2021/01/21 05:40:29;;;;;;;;;1.25;1.25;20.30;59.50;;;19.20;44.56;101733.28;5016060;28;8782;-61
2021/01/21 05:42:58;;;;;;;;;2.50;0.50;20.20;59.40;;;19.20;44.35;101740.47;5018794;28;8833;-61
2021/01/21 05:45:26;;;;;;;;;2.25;1.50;20.20;59.40;;;19.21;44.53;101737.66;5028548;28;8774;-63
2021/01/21 05:48:02;;;;;;;;;3.25;1.75;20.20;59.60;;;19.21;44.25;101732.31;5025068;28;9535;-62
2021/01/21 05:50:30;;;;;;;;;1.75;1.25;20.00;59.70;;;19.24;44.56;101732.03;5018307;28;8794;-59
2021/01/21 05:52:58;;;;;;;;;1.25;1.25;20.30;60.00;;;19.25;44.48;101738.22;5028578;28;8791;-60
2021/01/21 05:55:29;;;;;;;;;3.50;2.00;20.00;59.90;;;19.26;44.63;101739.94;5027142;28;8779;-60
2021/01/21 05:57:56;;;;;;;;;2.50;1.50;20.30;60.10;;;19.25;44.19;101741.75;5033396;28;8844;-60
2021/01/21 06:00:26;;;;;;;;;1.50;1.50;19.90;59.70;;;19.24;44.95;101739.22;5032269;28;8797;-58
2021/01/21 06:02:56;;;;;;;;;2.00;2.00;20.40;60.70;;;19.26;44.74;101738.13;5028470;28;8837;-60
2021/01/21 06:05:24;;;;;;;;;2.75;2.00;20.20;60.30;;;19.29;44.52;101735.16;5027807;28;9447;-60
2021/01/21 06:07:52;;;;;;;;;1.00;0.00;20.30;59.80;;;19.31;44.48;101743.06;5031754;28;8787;-60
2021/01/21 06:10:22;;;;;;;;;0.25;0.25;20.20;59.60;;;19.32;44.43;101738.56;5031517;28;8794;-60
2021/01/21 06:12:51;;;;;;;;;1.00;1.00;20.30;59.70;;;19.32;44.21;101728.69;5031941;28;8860;-60
2021/01/21 06:15:19;;;;;;;;;1.50;1.00;20.30;59.60;;;19.32;44.56;101725.16;5028657;28;8821;-60
2021/01/21 06:17:49;;;;;;;;;1.00;0.50;20.30;59.70;;;19.33;44.29;101724.16;5030416;28;8810;-60
2021/01/21 06:20:17;;;;;;;;;0.25;0.25;20.30;59.60;;;19.33;44.22;101724.16;5020171;28;8810;-58
2021/01/21 06:22:55;;;;;;;;;0.00;0.00;20.30;59.40;;;19.34;44.24;101726.72;5020901;28;9636;-60
2021/01/21 06:25:22;;;;;;;;;0.00;0.00;20.30;59.60;;;19.33;44.35;101722.31;5020361;28;8786;-61
2021/01/21 06:27:51;;;;;;;;;0.00;0.00;20.30;59.80;;;19.32;44.73;101731.38;5054786;28;8776;-62
2021/01/21 06:30:24;;;;;;;;;2.00;0.00;20.40;60.20;;;19.08;30.17;101726.31;5031802;28;8879;-60
2021/01/21 06:33:07;;;;;;;;;18.75;18.75;19.90;48.40;;;18.86;28.15;101728.19;5029681;28;8793;-60
2021/01/21 06:35:47;;;;;;;;;1.00;0.00;19.60;45.00;;;18.66;28.46;101737.03;5036156;28;8823;-60
2021/01/21 06:38:24;;;;;;;;;2.00;0.25;19.00;46.10;;;18.63;31.65;101745.34;5021771;28;8828;-65
2021/01/21 06:40:54;;;;;;;;;1.00;0.50;19.00;48.40;;;18.66;33.78;101742.38;4992148;28;8833;-66
2021/01/21 06:43:43;;;;;;;;;1.00;1.00;19.00;50.10;;;18.64;35.16;101747.03;5026946;28;8848;-63
2021/01/21 06:46:15;;;;;;;;;0.50;0.50;19.30;51.40;;;18.65;35.67;101740.72;5009735;28;8805;-65
2021/01/21 06:48:50;;;;;;;;;2.75;0.75;19.30;51.80;;;18.65;35.85;101746.06;5008817;28;8800;-64
2021/01/21 06:51:19;;;;;;;;;3.50;1.00;19.40;52.30;;;18.64;36.61;101749.69;5012824;28;8785;-64
2021/01/21 06:53:53;;;;;;;;;0.75;0.50;19.40;52.30;;;18.64;37.11;101737.16;5017737;28;8858;-64
2021/01/21 06:56:31;;;;;;;;;0.00;0.00;19.50;52.90;;;18.66;37.71;101737.88;5009424;28;8813;-63
2021/01/21 06:59:00;;;;;;;;;0.00;0.00;19.60;53.30;;;18.66;38.00;101739.72;5015346;28;8804;-65
2021/01/21 07:01:34;;;;;;;;;1.25;1.00;19.60;53.70;;;18.68;38.35;101728.91;5028217;28;8816;-65
2021/01/21 07:04:27;;;;;;;;;0.00;0.00;19.70;54.00;;;18.68;38.72;101729.75;5028472;28;8817;-62
2021/01/21 07:06:54;;;;;;;;;0.00;0.00;19.60;54.20;;;18.66;39.18;101720.97;5012439;28;8829;-66
2021/01/21 07:09:26;;;;;;;;;0.50;0.50;19.80;54.60;;;18.70;39.89;101719.75;5028982;28;8802;-61
2021/01/21 07:12:01;;;;;;;;;0.50;0.00;19.70;55.20;;;18.71;40.06;101724.13;5022411;28;8820;-61
2021/01/21 07:14:37;;;;;;;;;1.50;0.50;19.80;55.70;;;18.69;40.31;101720.72;5011999;28;9551;-60
2021/01/21 07:17:06;;;;;;;;;1.00;0.75;19.90;55.50;;;18.69;40.40;101728.75;5026876;28;8770;-61
2021/01/21 07:19:39;;;;;;;;;1.00;0.75;19.60;55.60;;;18.70;40.63;101733.13;5020680;28;8784;-59
2021/01/21 07:22:32;;;;;;;;;0.50;0.00;19.80;55.70;;;18.68;40.73;101736.91;5023930;28;8807;-61
2021/01/21 07:25:06;;;;;;;;;2.00;1.00;19.80;55.90;;;18.66;40.89;101743.22;5022853;28;8843;-61
2021/01/21 07:27:35;;;;;;;;;1.00;0.00;19.60;55.80;;;18.66;41.17;101748.59;5017372;28;8796;-61
2021/01/21 07:30:25;;;;;;;;;0.00;0.00;19.80;55.90;;;18.66;41.25;101745.91;5022083;28;8787;-61
2021/01/21 07:33:26;;;;;;;;;1.00;1.00;19.90;56.40;;;18.65;41.69;101756.78;5028618;28;8782;-61
2021/01/21 07:35:55;;;;;;;;;1.00;1.00;19.60;56.20;;;18.63;41.80;101759.56;5018045;28;8804;-62
2021/01/21 07:38:40;;;;;;;;;0.00;0.00;19.70;56.20;;;18.62;41.90;101762.34;4995655;28;8902;-59
2021/01/21 07:41:07;;;;;;;;;1.25;1.00;19.70;56.40;;;18.61;41.84;101761.50;5007928;28;8937;-60
2021/01/21 07:43:57;;;;;;;;;0.00;0.00;19.80;56.50;;;18.60;42.08;101753.63;5022126;28;8952;-59
2021/01/21 07:46:25;;;;;;;;;0.00;0.00;19.80;56.60;;;18.62;42.17;101751.66;5015107;28;8824;-61
2021/01/21 07:49:25;;;;;;;;;0.00;0.00;19.70;56.60;;;18.59;42.08;101743.88;4994708;28;8832;-59
2021/01/21 07:52:06;;;;;;;;;0.00;0.00;19.90;56.60;;;18.57;42.34;101740.47;5021010;28;8847;-59
2021/01/21 07:54:53;;;;;;;;;0.00;0.00;19.60;56.70;;;18.57;42.36;101748.50;5026482;28;8797;-59
2021/01/21 07:57:24;;;;;;;;;0.00;0.00;19.60;56.70;;;18.55;42.33;101751.34;5013028;28;9537;-59
2021/01/21 08:00:02;;;;;;;;;0.00;0.00;19.60;56.80;;;18.55;42.78;101759.38;5019629;28;8816;-60
2021/01/21 08:02:50;;;;;;;;;0.00;0.00;19.60;56.90;;;18.52;42.98;101753.41;5017487;28;8820;-60
2021/01/21 08:05:23;;;;;;;;;0.00;0.00;19.50;56.80;;;18.52;42.80;101748.06;5013626;28;9411;-61
2021/01/21 08:07:59;;;;;;;;;0.00;0.00;19.60;56.90;;;18.52;43.07;101750.72;4997504;28;8780;-61
2021/01/21 08:10:28;;;;;;;;;0.00;0.00;19.40;57.10;;;18.49;42.91;101748.31;5022969;28;8805;-61
2021/01/21 08:12:57;;;;;;;;;1.50;0.50;19.60;57.20;;;18.50;43.14;101756.22;5025306;28;9499;-61
2021/01/21 08:15:26;;;;;;;;;0.00;0.00;19.60;57.20;;;18.47;42.96;101753.81;5027732;28;8782;-60
2021/01/21 08:17:55;;;;;;;;;0.00;0.00;19.60;57.20;;;18.48;43.28;101752.00;5024416;28;8968;-61
2021/01/21 08:20:25;;;;;;;;;1.00;0.00;19.70;57.20;;;18.46;43.20;101741.41;5028578;28;8891;-60
2021/01/21 08:23:02;;;;;;;;;0.00;0.00;19.70;57.40;;;18.45;43.09;101734.38;5022115;28;8818;-60
2021/01/21 08:25:39;;;;;;;;;1.00;0.00;19.30;57.40;;;18.44;43.37;101738.88;5030643;28;8788;-61
2021/01/21 08:28:07;;;;;;;;;0.00;0.00;19.40;57.50;;;18.42;43.29;101734.63;5030430;28;8771;-61
2021/01/21 08:30:35;;;;;;;;;0.00;0.00;19.60;57.20;;;18.41;43.68;101733.75;5017456;28;8803;-60
2021/01/21 08:33:25;;;;;;;;;0.00;0.00;19.60;57.70;;;18.41;43.41;101743.63;5025246;28;8817;-60
2021/01/21 08:36:00;;;;;;;;;0.25;0.00;19.50;57.40;;;18.39;43.58;101743.75;5015048;28;8791;-61
2021/01/21 08:38:35;;;;;;;;;0.00;0.00;19.40;57.30;;;18.38;43.83;101734.03;4996501;28;8772;-61
2021/01/21 08:41:06;;;;;;;;;0.00;0.00;19.70;57.60;;;18.37;43.67;101720.78;5022246;28;8831;-61
2021/01/21 08:43:38;;;;;;;;;0.00;0.00;19.70;57.40;;;18.37;43.64;101734.16;5019933;28;8935;-61
2021/01/21 08:46:22;;;;;;;;;0.00;0.00;19.30;57.60;;;18.36;43.59;101735.13;5018834;28;8791;-61
2021/01/21 08:48:50;;;;;;;;;0.00;0.00;19.40;57.80;;;18.35;43.62;101744.13;5008154;28;8789;-61
2021/01/21 08:51:37;;;;;;;;;0.50;0.00;19.50;57.50;;;18.32;43.76;101737.22;5022842;28;8887;-61
2021/01/21 08:54:18;;;;;;;;;0.00;0.00;19.60;57.70;;;18.32;43.80;101729.19;5030781;28;8814;-61
2021/01/21 08:57:09;;;;;;;;;0.50;0.00;19.50;57.60;;;18.29;44.09;101732.09;5017587;28;8776;-61
2021/01/21 08:59:38;;;;;;;;;0.00;0.00;19.60;57.70;;;18.29;44.10;101737.44;5015437;28;8760;-61
2021/01/21 09:02:05;;;;;;;;;0.50;0.25;19.50;57.70;;;18.28;44.21;101734.94;5012082;28;8885;-61
2021/01/21 09:04:35;;;;;;;;;0.00;0.00;19.30;57.70;;;18.28;44.26;101749.16;5024864;28;8780;-61
2021/01/21 09:07:04;;;;;;;;;0.00;0.00;19.10;57.70;;;18.26;44.05;101736.88;5025196;28;8779;-61
2021/01/21 09:09:38;;;;;;;;;0.00;0.00;19.30;57.70;;;18.26;44.12;101737.72;5023371;28;8867;-61
2021/01/21 09:12:23;;;;;;;;;0.00;0.00;19.10;58.20;;;18.25;44.27;101738.72;5023824;28;9494;-61
2021/01/21 09:15:14;;;;;;;;;0.00;0.00;19.10;57.90;;;18.22;44.21;101739.81;5028229;28;8782;-61
2021/01/21 09:17:42;;;;;;;;;0.00;0.00;19.30;58.10;;;18.24;44.22;101742.34;5031600;28;8869;-60
2021/01/21 09:20:26;;;;;;;;;0.00;0.00;19.30;59.10;;;18.22;44.41;101739.81;5016211;28;8813;-61
2021/01/21 09:22:53;;;;;;;;;0.75;0.75;19.30;59.30;;;18.21;44.67;101732.75;5024874;28;8824;-60
2021/01/21 09:25:27;;;;;;;;;0.00;0.00;19.20;59.40;;;18.20;44.71;101735.56;5022060;28;8812;-61
2021/01/21 09:27:56;;;;;;;;;0.00;0.00;19.20;59.40;;;18.16;44.66;101734.94;5033496;28;8828;-61
2021/01/21 09:30:27;;;;;;;;;0.00;0.00;19.20;59.30;;;18.16;44.60;101742.13;5017326;28;8898;-60
2021/01/21 09:32:54;;;;;;;;;0.00;0.00;19.20;59.30;;;18.16;44.33;101744.81;5015869;28;8793;-61
2021/01/21 09:35:24;;;;;;;;;0.00;0.00;19.30;59.20;;;18.14;44.37;101738.72;5015363;28;8792;-61
2021/01/21 09:37:54;;;;;;;;;0.00;0.00;19.20;58.80;;;18.14;44.48;101736.06;5022062;28;8841;-61
2021/01/21 09:40:26;;;;;;;;;0.00;0.00;19.20;58.90;;;18.12;44.67;101746.91;5019313;28;8893;-61
2021/01/21 09:42:56;;;;;;;;;0.00;0.00;19.00;58.80;;;18.10;44.54;101756.03;5016328;28;8847;-61
2021/01/21 09:45:26;;;;;;;;;0.00;0.00;19.40;58.90;;;18.09;44.40;101748.97;5023910;28;8815;-61
2021/01/21 09:47:54;;;;;;;;;0.00;0.00;19.20;58.60;;;18.08;44.62;101750.78;5021368;28;8798;-61
2021/01/21 09:50:23;;;;;;;;;0.00;0.00;19.20;58.40;;;18.05;44.67;101751.06;5027415;28;8782;-61
2021/01/21 09:52:51;;;;;;;;;0.00;0.00;19.30;58.80;;;18.06;44.53;101752.75;5025909;28;8821;-61
2021/01/21 09:55:19;;;;;;;;;0.00;0.00;19.20;58.50;;;18.05;44.69;101752.88;5029144;28;8877;-61
2021/01/21 09:57:45;;;;;;;;;0.00;0.00;19.20;58.60;;;18.02;44.47;101759.34;5006756;28;8794;-61
2021/01/21 10:00:14;;;;;;;;;0.25;0.25;19.20;58.40;;;18.02;44.67;101759.34;5020883;28;8901;-61
2021/01/21 10:02:42;;;;;;;;;0.00;0.00;19.00;58.80;;;17.98;44.58;101756.03;5016864;28;8930;-60
2021/01/21 10:05:09;;;;;;;;;0.00;0.00;19.10;59.10;;;17.99;44.63;101756.91;5015386;28;8816;-59
2021/01/21 10:07:37;;;;;;;;;0.00;0.00;18.90;59.10;;;17.99;44.70;101756.91;5017837;28;8911;-61
2021/01/21 10:10:05;;;;;;;;;0.00;0.00;19.10;59.10;;;17.98;44.66;101757.88;5015500;28;8800;-61
2021/01/21 10:12:33;;;;;;;;;0.00;0.00;19.00;59.20;;;17.95;44.74;101750.94;5030616;28;8802;-61
2021/01/21 10:15:01;;;;;;;;;0.00;0.00;18.90;59.10;;;17.95;44.48;101752.78;5031745;28;8781;-61
2021/01/21 10:17:27;;;;;;;;;0.00;0.00;19.00;58.60;;;17.93;44.80;101755.56;5015262;28;8811;-61
2021/01/21 10:19:54;;;;;;;;;0.00;0.00;19.00;59.20;;;17.93;44.41;101750.22;5017831;28;8837;-60
2021/01/21 10:22:21;;;;;;;;;0.00;0.00;18.90;58.70;;;17.90;44.61;101755.81;5016456;28;8824;-61
2021/01/21 10:24:48;;;;;;;;;0.00;0.00;19.00;59.20;;;17.89;44.80;101769.34;5016573;28;8797;-61
2021/01/21 10:27:15;;;;;;;;;0.00;0.00;19.10;59.40;;;17.90;44.59;101773.69;5018042;28;8793;-61
2021/01/21 10:29:41;;;;;;;;;0.75;0.00;18.90;59.40;;;17.88;44.80;101771.13;5017625;28;8830;-61
2021/01/21 10:32:08;;;;;;;;;1.75;0.00;18.90;58.70;;;17.87;44.94;101764.09;5033723;28;8822;-61
2021/01/21 10:34:35;;;;;;;;;0.00;0.00;18.90;59.30;;;17.85;44.72;101768.72;5018901;28;8823;-61
2021/01/21 10:37:04;;;;;;;;;0.00;0.00;19.10;59.40;;;17.83;44.90;101767.97;5017872;28;8785;-61
2021/01/21 10:39:31;;;;;;;;;0.00;0.00;18.80;59.00;;;17.84;44.73;101767.03;5015863;28;8823;-61